createdAt,value
2023-03-30T03:08:11.163Z,99672.16
2023-03-30T03:10:40.232Z,99682.59
2023-03-30T03:13:09.563Z,99690.38
2023-03-30T03:15:39.239Z,99694.69
2023-03-30T03:18:09.096Z,99694.75
2023-03-30T03:20:38.313Z,99712.91
2023-03-30T03:23:07.961Z,99667.13
2023-03-30T03:25:38.732Z,99701.75
2023-03-30T03:28:08.091Z,99701.75
2023-03-30T03:30:39.060Z,99687.06
2023-03-30T03:33:08.550Z,99728.53
2023-03-30T03:35:40.801Z,99730.28
2023-03-30T03:38:09.914Z,99729.44
2023-03-30T03:40:40.544Z,99740.66
2023-03-30T03:43:09.918Z,99734.63
2023-03-30T03:45:39.987Z,99727.72
2023-03-30T03:48:12.555Z,99740.66
2023-03-30T03:50:41.985Z,99746.72
2023-03-30T03:53:11.085Z,99742.38
2023-03-30T03:55:43.460Z,99737.25
2023-03-30T03:58:12.585Z,99710.44
2023-03-30T04:00:42.074Z,99757.13
2023-03-30T04:03:12.754Z,99745.88
2023-03-30T04:05:42.541Z,99726.84
2023-03-30T04:08:12.321Z,99759.69
2023-03-30T04:10:44.181Z,99765.72
2023-03-30T04:13:13.350Z,99751.81
2023-03-30T04:15:42.522Z,99747.41
2023-03-30T04:18:11.695Z,99766.41
2023-03-30T04:20:40.796Z,99781.03
2023-03-30T04:23:10.202Z,99787.94
2023-03-30T04:25:40.219Z,99782.72
2023-03-30T04:28:12.048Z,99787.94
2023-03-30T04:30:41.405Z,99791.38
2023-03-30T04:33:10.576Z,99793.94
2023-03-30T04:35:39.670Z,99790.50
2023-03-30T04:38:08.969Z,99787.03
2023-03-30T04:40:38.531Z,99802.63
2023-03-30T04:43:07.783Z,99793.13
2023-03-30T04:45:38.645Z,99773.28
2023-03-30T04:48:07.954Z,99789.72
2023-03-30T04:50:37.193Z,99788.81
2023-03-30T04:53:06.292Z,99794.88
2023-03-30T04:55:35.475Z,99796.59
2023-03-30T04:58:04.746Z,99757.72
2023-03-30T05:00:33.888Z,99828.56
2023-03-30T05:03:06.565Z,99809.50
2023-03-30T05:05:37.001Z,99810.34
2023-03-30T05:08:06.572Z,99796.53
2023-03-30T05:10:36.501Z,99821.56
2023-03-30T05:13:05.729Z,99808.63
2023-03-30T05:15:37.733Z,99828.47
2023-03-30T05:18:08.540Z,99841.44
2023-03-30T05:20:37.814Z,99837.97
2023-03-30T05:23:07.180Z,99787.16
2023-03-30T05:25:36.320Z,99837.13
2023-03-30T05:28:05.525Z,99852.69
2023-03-30T05:30:34.738Z,99830.22
2023-03-30T05:33:03.886Z,99838.88
2023-03-30T05:35:34.623Z,99848.34
2023-03-30T05:38:05.586Z,99841.41
2023-03-30T05:40:34.696Z,99843.09
2023-03-30T05:43:04.244Z,99863.88
2023-03-30T05:45:33.500Z,99876.00
2023-03-30T05:48:02.693Z,99882.97
2023-03-30T05:50:31.815Z,99899.47
2023-03-30T05:53:02.475Z,99862.34
2023-03-30T05:55:31.708Z,99907.34
2023-03-30T05:58:01.191Z,99884.81
2023-03-30T06:00:33.737Z,99902.03
2023-03-30T06:03:02.984Z,99884.69
2023-03-30T06:05:34.265Z,99903.66
2023-03-30T06:08:05.278Z,99891.56
2023-03-30T06:10:34.427Z,99924.38
2023-03-30T06:13:04.280Z,99911.38
2023-03-30T06:15:35.216Z,99895.81
2023-03-30T06:18:05.619Z,99927.88
2023-03-30T06:20:36.537Z,99942.59
2023-03-30T06:23:07.460Z,99927.81
2023-03-30T06:25:37.278Z,99901.88
2023-03-30T06:28:06.431Z,99942.53
2023-03-30T06:30:35.653Z,99926.19
2023-03-30T06:33:04.770Z,99954.72
2023-03-30T06:35:33.952Z,99956.50
2023-03-30T06:38:03.129Z,99931.38
2023-03-30T06:40:34.089Z,99942.63
2023-03-30T06:43:03.349Z,99959.91
2023-03-30T06:45:32.511Z,99933.19
2023-03-30T06:48:01.849Z,99975.63
2023-03-30T06:50:31.021Z,99974.00
2023-03-30T06:53:00.389Z,99961.03
2023-03-30T06:55:29.603Z,99980.97
2023-03-30T06:58:00.382Z,99942.00
2023-03-30T07:00:30.211Z,99994.00
2023-03-30T07:02:59.735Z,99993.19
2023-03-30T07:05:29.270Z,100020.03
2023-03-30T07:07:58.785Z,100014.00
2023-03-30T07:10:28.741Z,99986.31
2023-03-30T07:12:59.940Z,100030.47
2023-03-30T07:15:29.276Z,100018.34
2023-03-30T07:17:58.569Z,100020.06
2023-03-30T07:20:27.895Z,100014.88
2023-03-30T07:22:57.080Z,99998.44
2023-03-30T07:25:26.315Z,100033.94
2023-03-30T07:27:55.765Z,99997.56
2023-03-30T07:30:26.613Z,100042.59
2023-03-30T07:32:58.194Z,99996.69
2023-03-30T07:35:34.478Z,100041.75
2023-03-30T07:38:04.861Z,100023.56
2023-03-30T07:40:38.686Z,100052.16
2023-03-30T07:43:08.345Z,100018.41
2023-03-30T07:45:39.376Z,100076.44
2023-03-30T07:48:08.641Z,99861.78
2023-03-30T07:50:38.668Z,100054.78
2023-03-30T07:53:08.257Z,99994.19
2023-03-30T07:55:38.022Z,100094.59
2023-03-30T07:58:08.281Z,100116.25
2023-03-30T08:00:38.951Z,100078.16
2023-03-30T08:03:08.823Z,100107.59
2023-03-30T08:05:41.035Z,100137.06
2023-03-30T08:08:11.192Z,100104.13
2023-03-30T08:10:40.253Z,100124.06
2023-03-30T08:13:11.290Z,100108.50
2023-03-30T08:15:42.175Z,100127.56
2023-03-30T08:18:13.345Z,100142.31
2023-03-30T08:20:43.930Z,100144.94
2023-03-30T08:23:14.317Z,100142.31
2023-03-30T08:25:44.702Z,100085.97
2023-03-30T08:28:15.856Z,100137.13
2023-03-30T08:30:46.580Z,100159.66
2023-03-30T08:33:16.383Z,100163.09
2023-03-30T08:35:47.037Z,100164.84
2023-03-30T08:38:17.973Z,100161.38
2023-03-30T08:40:49.202Z,100165.69
2023-03-30T08:43:35.456Z,100183.88
